Weather at Highwood Airport

Public forecast

Using degrees Celsius for public forecast. Weather courtesy of forecast.io.

Closest aviation weather report (METAR) to Highwood Airport

Closest report is Calgary International Airport, 19.6 nm (36.2 km) NNW.

2024/05/19 23:00 (retrieved 36 minutes ago)

CYYC 192300Z 02014G24KT 15SM SCT050 BKN067 BKN100 OVC230 09/02 A2993 RMK SC3AC3AC1CI1 SLP166

Closest aviation forecast (TAF) to Highwood Airport

Closest forecast is Calgary International Airport, 19.6 nm (36.2 km) NNW.

2024/05/19 21:42 (retrieved 2 hours ago)

TAF TAF CYYC 192040Z 1921/2018 32012G22KT P6SM BKN050 TEMPO 1921/2001 VRB15G25KT P6SM -SHRA VCTS BKN030CB FM200100 34010KT P6SM FEW020 BKN040 OVC110 TEMPO 2001/2009 P6SM -SHRA SCT020 OVC040 FM200900 33005KT P6SM FEW020 SCT050 BKN110 FM201500 34010G20KT P6SM -SHRA BKN020 OVC040 RMK NXT FCST BY 200000Z